Terminal Aerodrome Forecast
Issued by NWS Sterling, VA

Current Version | Previous Version | Graphics & Text | Print | Product List | Glossary On
Versions: 1 2 3 4 5 6 7 8 9 10 11 12 13 14 15 16 17 18 19 20 21 22 23 24 25 26 27 28
000
FTUS41 KLWX 011124
TAFDCA
TAF
KDCA 011124Z 0112/0212 22006KT P6SM BKN070
     FM011800 22006KT 5SM SHRA VCTS BKN050CB
     FM020100 31004KT 5SM SHRA OVC050
     FM020300 VRB03KT 6SM -SHRA OVC050
     FM020600 35005KT 6SM -SHRA BR OVC010=

USA.gov is the U.S. government's official web portal to all federal, state and local government web resources and services.